TimeCDT,TemperatureF,Dew PointF,Humidity,Sea Level PressureIn,VisibilityMPH,Wind Direction,Wind SpeedMPH,Gust SpeedMPH,PrecipitationIn,Events,Conditions,WindDirDegrees,DateUTC
12:58 AM,61.0,57.9,90,29.95,10.0,SSE,5.8,-,N/A,,Mostly Cloudy,150,2013-03-18 05:58:00
1:09 AM,60.8,57.2,88,29.96,10.0,SSE,4.6,-,N/A,,Scattered Clouds,160,2013-03-18 06:09:00
1:58 AM,57.9,57.0,97,29.95,6.0,SSE,4.6,-,N/A,,Partly Cloudy,150,2013-03-18 06:58:00
2:08 AM,59.0,57.2,94,29.95,6.0,SSE,3.5,-,N/A,,Mostly Cloudy,160,2013-03-18 07:08:00
2:58 AM,60.1,57.9,93,29.94,7.0,South,8.1,-,N/A,,Overcast,170,2013-03-18 07:58:00
3:48 AM,60.8,57.2,88,29.94,8.0,SSE,5.8,-,N/A,,Overcast,150,2013-03-18 08:48:00
3:58 AM,60.1,57.9,93,29.94,9.0,SSE,4.6,-,N/A,,Overcast,160,2013-03-18 08:58:00
4:58 AM,60.1,59.0,96,29.95,8.0,SE,3.5,-,N/A,,Overcast,130,2013-03-18 09:58:00
5:29 AM,60.8,57.2,88,29.96,7.0,Calm,Calm,-,N/A,,Overcast,0,2013-03-18 10:29:00
5:58 AM,60.1,57.9,93,29.96,7.0,Calm,Calm,-,N/A,,Overcast,0,2013-03-18 10:58:00
6:37 AM,60.8,57.2,88,29.98,7.0,Calm,Calm,-,0.00,,Overcast,0,2013-03-18 11:37:00
6:57 AM,60.1,57.9,93,29.98,7.0,Calm,Calm,-,0.00,,Overcast,0,2013-03-18 11:57:00
7:29 AM,60.8,59.0,94,29.99,5.0,SSE,5.8,-,N/A,,Overcast,150,2013-03-18 12:29:00
7:58 AM,61.0,59.0,93,29.97,4.0,SSE,6.9,-,N/A,,Overcast,150,2013-03-18 12:58:00
8:47 AM,62.6,60.8,94,29.98,7.0,South,3.5,-,N/A,,Mostly Cloudy,170,2013-03-18 13:47:00
8:53 AM,64.4,60.8,88,29.98,8.0,South,6.9,-,N/A,,Mostly Cloudy,170,2013-03-18 13:53:00
8:58 AM,64.0,61.0,90,29.98,9.0,South,6.9,-,N/A,,Mostly Cloudy,170,2013-03-18 13:58:00
9:58 AM,69.1,63.0,81,29.96,10.0,South,11.5,-,N/A,,Scattered Clouds,190,2013-03-18 14:58:00
10:58 AM,73.9,63.0,68,29.94,10.0,South,10.4,-,N/A,,Partly Cloudy,180,2013-03-18 15:58:00
11:13 AM,73.4,64.4,73,29.96,10.0,SSW,10.4,18.4,N/A,,Mostly Cloudy,200,2013-03-18 16:13:00
11:56 AM,75.2,64.4,69,29.93,10.0,SSW,16.1,-,N/A,,Overcast,200,2013-03-18 16:56:00
11:58 AM,75.0,64.0,69,29.92,10.0,SSW,13.8,-,N/A,,Overcast,200,2013-03-18 16:58:00
12:05 PM,75.2,64.4,69,29.93,10.0,South,13.8,-,N/A,,Overcast,190,2013-03-18 17:05:00
12:17 PM,77.0,64.4,65,29.93,10.0,South,13.8,-,N/A,,Mostly Cloudy,190,2013-03-18 17:17:00
12:25 PM,77.0,64.4,65,29.93,10.0,SSW,10.4,17.3,N/A,,Overcast,200,2013-03-18 17:25:00
12:33 PM,78.8,64.4,61,29.93,10.0,SSW,10.4,-,N/A,,Mostly Cloudy,200,2013-03-18 17:33:00
12:58 PM,79.0,64.9,62,29.91,10.0,South,16.1,21.9,N/A,,Mostly Cloudy,190,2013-03-18 17:58:00
1:38 PM,78.8,64.4,61,29.90,10.0,South,13.8,-,N/A,,Mostly Cloudy,190,2013-03-18 18:38:00
1:58 PM,79.0,64.0,60,29.88,10.0,SSW,18.4,25.3,N/A,,Mostly Cloudy,200,2013-03-18 18:58:00
2:51 PM,78.8,64.4,61,29.86,10.0,SSW,16.1,24.2,N/A,,Mostly Cloudy,210,2013-03-18 19:51:00
2:58 PM,79.0,64.0,60,29.84,10.0,SSW,19.6,26.5,N/A,,Mostly Cloudy,210,2013-03-18 19:58:00
3:58 PM,78.1,64.9,64,29.84,10.0,South,15.0,-,N/A,,Mostly Cloudy,190,2013-03-18 20:58:00
4:58 PM,79.0,66.0,64,29.82,10.0,SSW,17.3,21.9,N/A,,Mostly Cloudy,200,2013-03-18 21:58:00
5:58 PM,75.0,64.9,71,29.83,10.0,SSW,13.8,-,N/A,,Mostly Cloudy,210,2013-03-18 22:58:00
6:08 PM,75.2,64.4,69,29.85,10.0,SSW,15.0,-,N/A,,Mostly Cloudy,200,2013-03-18 23:08:00
6:51 PM,73.4,64.4,73,29.86,10.0,SSW,9.2,-,N/A,,Overcast,200,2013-03-18 23:51:00
6:58 PM,73.0,64.9,76,29.86,10.0,SW,5.8,-,N/A,,Overcast,230,2013-03-18 23:58:00
7:04 PM,71.6,64.4,78,29.86,10.0,SSW,8.1,-,N/A,,Overcast,210,2013-03-19 00:04:00
7:15 PM,71.6,64.4,78,29.87,10.0,WSW,4.6,-,N/A,,Overcast,240,2013-03-19 00:15:00
7:19 PM,71.6,64.4,78,29.87,10.0,SW,4.6,-,N/A,,Overcast,220,2013-03-19 00:19:00
7:28 PM,71.6,64.4,78,29.88,10.0,SSW,9.2,-,N/A,,Overcast,210,2013-03-19 00:28:00
7:58 PM,70.0,64.9,84,29.89,10.0,SW,4.6,-,N/A,,Mostly Cloudy,220,2013-03-19 00:58:00
8:23 PM,69.8,64.4,83,29.91,10.0,Calm,Calm,-,N/A,Thunderstorm,Thunderstorm,0,2013-03-19 01:23:00
8:48 PM,62.6,59.0,88,29.92,2.5,NNE,11.5,29.9,0.11,Rain-Thunderstorm,Heavy Thunderstorms and Rain,30,2013-03-19 01:48:00
8:52 PM,60.8,57.2,88,29.94,1.2,North,9.2,21.9,0.21,Rain-Thunderstorm,Heavy Thunderstorms and Rain,350,2013-03-19 01:52:00
8:58 PM,60.1,57.9,93,29.94,1.0,North,11.5,21.9,0.38,Rain-Thunderstorm,Heavy Thunderstorms and Rain,360,2013-03-19 01:58:00
9:08 PM,60.8,57.2,88,29.94,2.5,NNE,6.9,-,0.13,Rain-Thunderstorm,Heavy Thunderstorms and Rain,20,2013-03-19 02:08:00
9:14 PM,60.8,57.2,88,29.94,3.0,NNE,8.1,17.3,0.15,Rain-Thunderstorm,Thunderstorms and Rain,30,2013-03-19 02:14:00
9:58 PM,60.1,57.9,93,29.89,10.0,SE,3.5,-,0.18,Thunderstorm,Thunderstorm,140,2013-03-19 02:58:00
10:33 PM,59.0,57.2,94,29.90,10.0,Calm,Calm,-,N/A,,Clear,0,2013-03-19 03:33:00
10:58 PM,60.1,57.9,93,29.90,10.0,SSW,3.5,-,N/A,,Mostly Cloudy,200,2013-03-19 03:58:00
11:58 PM,60.1,57.9,93,29.91,10.0,SSW,3.5,-,N/A,,Scattered Clouds,200,2013-03-19 04:58:00